Terminal Aerodrome Forecast
Issued by NWS Mobile, AL

Home | Current Version | Previous Version | Text Only | Print | Product List | Glossary On
Versions: 1 2 3 4 5 6 7 8 9 10 11 12 13 14 15 16 17 18 19 20 21 22 23 24 25 26 27 28 29 30 31 32
000
FTUS44 KMOB 260541
TAFPNS
TAF
KPNS 260541Z 2606/2706 11006KT P6SM SKC
     FM260900 18005KT 4SM BR SKC
      TEMPO 2609/2613 1SM BR BKN002
     FM261400 18008KT P6SM VCSH SCT025 BKN250
     FM270400 16005KT 4SM BR BKN002=

USA.gov is the U.S. government's official web portal to all federal, state and local government web resources and services.